createdAt,value
2019-05-15T00:01:08.881Z,102780.88
2019-05-15T00:03:38.856Z,102776.09
2019-05-15T00:06:05.056Z,102773.53
2019-05-15T00:08:32.057Z,102777.50
2019-05-15T00:10:59.098Z,102769.44
2019-05-15T00:13:28.282Z,102772.16
2019-05-15T00:15:55.628Z,102773.35
2019-05-15T00:18:22.760Z,102771.38
2019-05-15T00:20:49.917Z,102767.86
2019-05-15T00:23:18.276Z,102768.66
2019-05-15T00:26:30.032Z,102768.94
2019-05-15T00:29:09.452Z,102771.36
2019-05-15T00:31:26.200Z,102771.12
2019-05-15T00:33:53.322Z,102767.48
2019-05-15T00:36:20.291Z,102765.44
2019-05-15T00:38:48.321Z,102766.66
2019-05-15T00:41:15.419Z,102765.55
2019-05-15T00:43:44.192Z,102763.22
2019-05-15T00:46:11.278Z,102768.16
2019-05-15T00:48:39.782Z,102766.86
2019-05-15T00:51:08.458Z,102765.28
2019-05-15T00:53:38.760Z,102762.27
2019-05-15T00:56:08.667Z,102765.00
2019-05-15T00:58:35.245Z,102763.30
2019-05-15T01:01:02.532Z,102758.20
2019-05-15T01:03:29.519Z,102763.02
2019-05-15T01:05:58.513Z,102751.96
2019-05-15T01:08:25.512Z,102754.80
2019-05-15T01:10:52.586Z,102754.57
2019-05-15T01:13:19.528Z,102745.16
2019-05-15T01:15:48.766Z,102741.88
2019-05-15T01:18:18.684Z,102740.41
2019-05-15T01:20:45.938Z,102741.95
2019-05-15T01:23:14.945Z,102738.16
2019-05-15T01:25:42.000Z,102733.97
2019-05-15T01:28:10.063Z,102735.67
2019-05-15T01:30:39.386Z,102739.58
2019-05-15T01:33:08.270Z,102741.56
2019-05-15T01:35:34.946Z,102738.55
2019-05-15T01:38:01.936Z,102743.38
2019-05-15T01:40:29.053Z,102735.44
2019-05-15T01:42:59.482Z,102735.72
2019-05-15T01:45:28.637Z,102734.69
2019-05-15T01:47:55.324Z,102733.66
2019-05-15T01:50:23.500Z,102739.39
2019-05-15T01:52:50.529Z,102732.36
2019-05-15T01:55:18.198Z,102741.21
2019-05-15T01:57:45.315Z,102733.97
2019-05-15T02:00:12.709Z,102735.23
2019-05-15T02:02:39.680Z,102739.26
2019-05-15T02:05:08.649Z,102732.30
2019-05-15T02:07:39.084Z,102736.16
2019-05-15T02:10:06.151Z,102736.53
2019-05-15T02:12:33.125Z,102732.11
2019-05-15T02:15:00.092Z,102730.02
2019-05-15T02:17:28.261Z,102736.09
2019-05-15T02:19:55.477Z,102731.27
2019-05-15T02:22:22.479Z,102732.01
2019-05-15T02:24:49.450Z,102730.03
2019-05-15T02:27:18.712Z,102726.45
2019-05-15T02:29:45.493Z,102728.44
2019-05-15T02:32:12.443Z,102731.73
2019-05-15T02:34:39.805Z,102738.37
2019-05-15T02:37:08.981Z,102734.97
2019-05-15T02:39:38.942Z,102734.69
2019-05-15T02:42:05.045Z,102743.42
2019-05-15T02:44:32.093Z,102741.20
2019-05-15T02:46:59.160Z,102740.58
2019-05-15T02:49:26.151Z,102735.92
2019-05-15T02:51:53.176Z,102737.74
2019-05-15T02:54:20.295Z,102729.52
2019-05-15T02:56:49.462Z,102731.61
2019-05-15T02:59:19.307Z,102729.68
2019-05-15T03:01:45.261Z,102734.16
2019-05-15T03:04:12.343Z,102730.12
2019-05-15T03:06:39.395Z,102732.63
2019-05-15T03:09:09.142Z,102733.70
2019-05-15T03:11:35.334Z,102734.22
2019-05-15T03:14:02.386Z,102732.30
2019-05-15T03:16:30.361Z,102740.23
2019-05-15T03:18:59.847Z,102740.12
2019-05-15T03:21:29.488Z,102746.64
2019-05-15T03:23:59.394Z,102752.48
2019-05-15T03:26:29.633Z,102746.48
2019-05-15T03:28:58.829Z,102745.56
2019-05-15T03:31:47.585Z,102741.94
2019-05-15T03:33:54.746Z,102746.25
2019-05-15T03:36:24.130Z,102746.02
2019-05-15T03:42:39.641Z,102738.23
2019-05-15T03:45:10.104Z,102741.40
2019-05-15T03:47:39.691Z,102734.64
2019-05-15T03:50:05.115Z,102739.86
2019-05-15T03:52:32.165Z,102736.62
2019-05-15T03:55:00.190Z,102737.02
2019-05-15T03:58:22.469Z,102742.12
2019-05-15T04:00:49.925Z,102738.95
2019-05-15T04:03:20.095Z,102732.83
2019-05-15T04:05:49.215Z,102735.99
2019-05-15T04:08:15.118Z,102740.46
2019-05-15T04:10:42.072Z,102739.27
2019-05-15T04:13:09.663Z,102740.30
2019-05-15T04:15:39.499Z,102743.02
2019-05-15T04:18:08.980Z,102745.23
2019-05-15T04:21:11.244Z,102746.38
2019-05-15T04:23:39.404Z,102750.02
2019-05-15T04:26:09.290Z,102745.83
2019-05-15T04:28:41.603Z,102743.33
2019-05-15T04:31:09.458Z,102748.73
2019-05-15T04:33:39.544Z,102741.38
2019-05-15T04:36:05.407Z,102739.27
2019-05-15T04:38:32.352Z,102743.12
2019-05-15T04:40:59.554Z,102733.66
2019-05-15T04:43:30.257Z,102733.66
2019-05-15T04:45:59.192Z,102731.84
2019-05-15T04:48:24.498Z,102728.32
2019-05-15T04:50:51.464Z,102728.31
2019-05-15T04:53:19.236Z,102724.30
2019-05-15T04:55:49.084Z,102720.64
2019-05-15T04:58:20.317Z,102722.03
2019-05-15T05:00:52.388Z,102720.70
2019-05-15T05:03:20.601Z,102716.73
2019-05-15T05:05:49.797Z,102717.12
2019-05-15T05:08:19.851Z,102712.42
2019-05-15T05:10:48.576Z,102714.58
2019-05-15T05:13:14.838Z,102718.34
2019-05-15T05:15:41.884Z,102715.45
2019-05-15T05:18:09.690Z,102714.87
2019-05-15T05:20:38.245Z,102714.39
2019-05-15T05:23:05.377Z,102717.33
2019-05-15T05:25:32.323Z,102716.54
2019-05-15T05:27:59.296Z,102719.97
2019-05-15T05:30:26.243Z,102717.45
2019-05-15T05:32:53.178Z,102722.92
2019-05-15T05:35:20.171Z,102721.09
2019-05-15T05:37:48.082Z,102717.14
2019-05-15T05:40:15.537Z,102719.53
2019-05-15T05:42:42.513Z,102719.81
2019-05-15T05:45:10.307Z,102719.52
2019-05-15T05:47:38.309Z,102721.71
2019-05-15T05:50:07.951Z,102730.36
2019-05-15T05:52:35.479Z,102724.69
2019-05-15T05:55:02.434Z,102723.06
2019-05-15T05:57:29.422Z,102724.35
2019-05-15T05:59:58.290Z,102724.81
2019-05-15T06:02:25.223Z,102720.03
2019-05-15T06:04:52.203Z,102718.28
2019-05-15T06:07:19.163Z,102717.84
2019-05-15T06:09:48.489Z,102717.71
2019-05-15T06:12:15.034Z,102720.48
2019-05-15T06:14:42.082Z,102722.06
2019-05-15T06:17:09.017Z,102719.94
2019-05-15T06:19:38.378Z,102723.28
2019-05-15T06:22:04.951Z,102724.09
2019-05-15T06:24:31.851Z,102714.92
2019-05-15T06:26:58.800Z,102721.94
2019-05-15T06:29:25.795Z,102718.84
2019-05-15T06:31:59.705Z,102719.60
2019-05-15T06:34:28.585Z,102720.45
2019-05-15T06:36:55.541Z,102723.75
2019-05-15T06:39:22.495Z,102729.22
2019-05-15T06:41:49.476Z,102724.64
2019-05-15T06:44:18.550Z,102721.73
2019-05-15T06:46:45.335Z,102722.73
2019-05-15T06:49:12.291Z,102713.40
2019-05-15T06:51:39.297Z,102718.41
2019-05-15T06:54:08.553Z,102718.41
2019-05-15T06:56:35.139Z,102714.47
2019-05-15T06:59:02.139Z,102715.03
2019-05-15T07:01:29.582Z,102715.92
2019-05-15T07:03:58.858Z,102715.75
2019-05-15T07:06:25.623Z,102714.73
2019-05-15T07:08:52.607Z,102711.56
2019-05-15T07:11:20.733Z,102708.83
2019-05-15T07:14:44.281Z,102714.56
2019-05-15T07:17:11.240Z,102717.92
2019-05-15T07:19:39.268Z,102719.13
2019-05-15T07:22:06.396Z,102716.91
2019-05-15T07:24:35.161Z,102711.59
2019-05-15T07:27:02.116Z,102717.59
2019-05-15T07:29:29.302Z,102715.59
2019-05-15T07:31:58.457Z,102715.84
2019-05-15T07:34:28.374Z,102711.32
2019-05-15T07:36:55.570Z,102710.25
2019-05-15T07:39:22.528Z,102709.56
2019-05-15T07:41:49.470Z,102697.97
2019-05-15T07:44:18.755Z,102700.60
2019-05-15T07:46:45.376Z,102700.89
2019-05-15T07:49:12.485Z,102700.91
2019-05-15T07:51:39.491Z,102705.65
2019-05-15T07:54:08.930Z,102707.89
2019-05-15T07:56:35.343Z,102709.89
2019-05-15T07:59:02.314Z,102704.69
2019-05-15T08:01:29.299Z,102696.00
2019-05-15T08:04:05.115Z,102698.38
2019-05-15T08:06:29.199Z,102700.25
2019-05-15T08:08:56.136Z,102702.69
2019-05-15T08:11:24.739Z,102691.92
2019-05-15T08:13:51.986Z,102693.31
2019-05-15T08:16:18.952Z,102686.50
2019-05-15T08:18:48.256Z,102686.43
2019-05-15T08:21:14.808Z,102684.48
2019-05-15T08:23:43.116Z,102678.16
2019-05-15T08:26:10.055Z,102676.07
2019-05-15T08:28:57.993Z,102677.73
2019-05-15T08:31:25.065Z,102678.08
2019-05-15T08:33:53.109Z,102662.78
2019-05-15T08:36:20.575Z,102663.69
2019-05-15T08:38:48.633Z,102662.92
2019-05-15T08:41:18.571Z,102662.15
2019-05-15T08:43:45.409Z,102659.98
2019-05-15T08:46:12.553Z,102668.11
2019-05-15T08:48:39.503Z,102662.96
2019-05-15T08:51:08.733Z,102658.42
2019-05-15T08:53:37.825Z,102660.52
2019-05-15T08:56:04.340Z,102656.00
2019-05-15T08:58:31.302Z,102651.69
2019-05-15T09:00:58.888Z,102652.78
2019-05-15T09:03:28.459Z,102655.71
2019-05-15T09:05:54.967Z,102643.46
2019-05-15T09:08:22.107Z,102636.02
2019-05-15T09:10:50.287Z,102635.42
2019-05-15T09:13:18.832Z,102624.73
2019-05-15T09:15:48.214Z,102626.67
2019-05-15T09:18:16.406Z,102616.83
2019-05-15T09:20:44.044Z,102632.58
2019-05-15T09:23:11.028Z,102623.39
2019-05-15T09:25:38.982Z,102619.95
2019-05-15T09:28:08.515Z,102612.80
2019-05-15T09:30:35.197Z,102611.72
2019-05-15T09:33:03.969Z,102610.52
2019-05-15T09:35:30.959Z,102612.56
2019-05-15T09:37:58.399Z,102607.75
2019-05-15T09:40:41.858Z,102603.35
2019-05-15T09:42:54.425Z,102600.92
2019-05-15T09:45:21.372Z,102601.52
2019-05-15T09:47:48.618Z,102597.18
2019-05-15T09:50:16.256Z,102595.97
2019-05-15T09:52:43.222Z,102597.18
2019-05-15T09:55:10.877Z,102591.75
2019-05-15T09:57:38.663Z,102597.33
2019-05-15T10:00:08.963Z,102590.54
2019-05-15T10:02:39.078Z,102583.17
2019-05-15T10:05:10.454Z,102575.29
2019-05-15T10:07:34.531Z,102580.01
2019-05-15T10:10:01.826Z,102575.72
2019-05-15T10:12:34.516Z,102577.83
2019-05-15T10:15:11.838Z,102564.73
2019-05-15T10:17:41.835Z,102563.77
2019-05-15T10:20:09.426Z,102556.78
2019-05-15T10:22:36.379Z,102559.40
2019-05-15T10:25:03.849Z,102557.98
2019-05-15T10:27:30.855Z,102548.05
2019-05-15T10:29:58.847Z,102557.42
2019-05-15T10:32:28.987Z,102553.15
2019-05-15T10:34:58.471Z,102549.73
2019-05-15T10:37:24.893Z,102534.92
2019-05-15T10:39:52.861Z,102536.30
2019-05-15T10:42:20.033Z,102538.35
2019-05-15T10:44:48.815Z,102533.64
2019-05-15T10:47:15.859Z,102541.56
2019-05-15T10:49:42.800Z,102533.55
2019-05-15T10:52:11.336Z,102532.73
2019-05-15T10:54:38.701Z,102524.38
2019-05-15T10:57:08.535Z,102526.98
2019-05-15T10:59:34.668Z,102524.17
2019-05-15T11:02:01.628Z,102532.22
2019-05-15T11:04:28.934Z,102530.42
2019-05-15T11:06:58.037Z,102526.52
2019-05-15T11:09:24.946Z,102514.55
2019-05-15T11:11:51.907Z,102511.38
2019-05-15T11:14:18.942Z,102514.85
2019-05-15T11:16:48.427Z,102511.63
2019-05-15T11:20:18.817Z,102508.38
2019-05-15T11:22:46.207Z,102508.00
2019-05-15T11:25:13.850Z,102509.73
2019-05-15T11:27:40.857Z,102497.41
2019-05-15T11:30:08.736Z,102496.78
2019-05-15T11:32:35.805Z,102494.48
2019-05-15T11:35:04.545Z,102492.71
2019-05-15T11:37:31.793Z,102491.49
2019-05-15T11:39:59.078Z,102493.37
2019-05-15T11:42:28.841Z,102482.20
2019-05-15T11:44:55.157Z,102469.39
2019-05-15T11:47:22.178Z,102474.88
2019-05-15T11:49:49.226Z,102467.34
2019-05-15T11:52:18.867Z,102469.23
2019-05-15T11:54:45.196Z,102458.04
2019-05-15T11:57:12.201Z,102456.84
2019-05-15T11:59:45.030Z,102448.23
2019-05-15T12:02:08.568Z,102442.92
2019-05-15T12:04:38.193Z,102446.55
2019-05-15T12:07:05.801Z,102433.34
2019-05-15T12:09:32.816Z,102445.04
2019-05-15T12:11:59.834Z,102442.89
2019-05-15T12:14:29.393Z,102438.41
2019-05-15T12:17:06.998Z,102434.61
2019-05-15T12:19:24.902Z,102423.11
2019-05-15T12:21:51.890Z,102418.19
2019-05-15T12:24:18.850Z,102422.27
2019-05-15T12:27:42.296Z,102429.48
2019-05-15T12:30:10.428Z,102429.94
2019-05-15T12:32:40.341Z,102416.52
2019-05-15T12:35:07.176Z,102414.72
2019-05-15T12:37:34.262Z,102412.91
2019-05-15T12:59:59.663Z,102400.39
2019-05-15T13:02:28.046Z,102403.98
2019-05-15T13:04:55.131Z,102387.45
2019-05-15T13:07:22.220Z,102396.40
2019-05-15T13:09:49.189Z,102401.23
2019-05-15T13:12:18.218Z,102399.09
2019-05-15T13:14:45.355Z,102397.30
2019-05-15T13:17:12.362Z,102390.12
2019-05-15T13:19:39.313Z,102386.08
2019-05-15T13:22:17.305Z,102382.37
2019-05-15T13:24:35.431Z,102385.90
2019-05-15T13:27:02.386Z,102376.64
2019-05-15T13:29:48.641Z,102374.88
2019-05-15T13:32:21.040Z,102376.61
2019-05-15T13:34:48.747Z,102376.50
2019-05-15T13:37:26.632Z,102363.45
2019-05-15T13:39:44.934Z,102364.09
2019-05-15T13:42:11.879Z,102366.84
2019-05-15T13:44:38.974Z,102370.44
2019-05-15T13:50:24.100Z,102362.37
2019-05-15T13:52:51.414Z,102358.82
2019-05-15T13:55:35.260Z,102361.53
2019-05-15T13:57:57.929Z,102357.05
2019-05-15T14:00:24.411Z,102350.81
2019-05-15T14:02:52.536Z,102354.83
2019-05-15T14:05:19.486Z,102354.34
2019-05-15T14:07:50.740Z,102349.39
2019-05-15T14:10:18.048Z,102338.22
2019-05-15T14:12:44.908Z,102346.70
2019-05-15T14:15:12.367Z,102340.01
2019-05-15T14:17:39.349Z,102333.30
2019-05-15T14:20:09.152Z,102327.87
2019-05-15T14:22:35.829Z,102321.19
2019-05-15T14:25:03.434Z,102324.36
2019-05-15T14:27:30.402Z,102319.41
2019-05-15T14:29:58.156Z,102317.19
2019-05-15T14:32:37.467Z,102319.84
2019-05-15T14:34:58.509Z,102322.04
2019-05-15T14:37:28.586Z,102317.13
2019-05-15T14:39:58.015Z,102312.08
2019-05-15T14:42:44.710Z,102297.94
2019-05-15T14:45:11.938Z,102293.53
2019-05-15T14:47:58.189Z,102289.97
2019-05-15T14:50:25.347Z,102295.33
2019-05-15T14:52:52.568Z,102287.73
2019-05-15T14:55:19.750Z,102288.18
2019-05-15T14:57:48.753Z,102282.33
2019-05-15T15:00:19.374Z,102290.78
2019-05-15T15:02:52.570Z,102284.97
2019-05-15T15:05:26.474Z,102272.91
2019-05-15T15:07:53.542Z,102266.72
2019-05-15T15:10:20.529Z,102266.72
2019-05-15T15:12:49.930Z,102267.50
2019-05-15T15:15:18.063Z,102269.18
2019-05-15T15:17:45.276Z,102263.22
2019-05-15T15:20:14.096Z,102260.56
2019-05-15T15:22:41.373Z,102256.11
2019-05-15T15:25:09.841Z,102256.97
2019-05-15T15:27:38.774Z,102257.72
2019-05-15T15:30:09.063Z,102265.18
2019-05-15T15:32:37.751Z,102254.13
2019-05-15T15:35:08.517Z,102255.85
2019-05-15T15:37:35.292Z,102250.08
2019-05-15T15:40:48.073Z,102253.63
2019-05-15T15:43:15.063Z,102251.80
2019-05-15T15:45:42.045Z,102249.24
2019-05-15T15:48:09.092Z,102247.88
2019-05-15T15:50:38.247Z,102253.95
2019-05-15T15:53:05.059Z,102252.61
2019-05-15T15:55:32.425Z,102243.73
2019-05-15T15:57:59.441Z,102243.92
2019-05-15T16:00:28.402Z,102241.31
2019-05-15T16:02:55.335Z,102243.87
2019-05-15T16:05:22.344Z,102239.34
2019-05-15T16:07:49.358Z,102245.55
2019-05-15T16:10:18.794Z,102233.95
2019-05-15T16:12:45.648Z,102233.80
2019-05-15T16:18:53.227Z,102233.54
2019-05-15T16:21:20.533Z,102231.34
2019-05-15T16:23:48.121Z,102232.77
2019-05-15T16:26:15.248Z,102230.89
2019-05-15T16:28:42.235Z,102222.52
2019-05-15T16:31:09.230Z,102218.31
2019-05-15T16:33:36.217Z,102229.91
2019-05-15T16:36:03.289Z,102230.20
2019-05-15T16:38:30.329Z,102222.44
2019-05-15T16:41:02.382Z,102216.16
2019-05-15T16:43:29.416Z,102223.06
2019-05-15T16:46:02.458Z,102221.19
2019-05-15T16:48:29.636Z,102223.30
2019-05-15T16:50:58.050Z,102214.16
2019-05-15T16:53:25.285Z,102214.59
2019-05-15T16:55:52.567Z,102218.59
2019-05-15T16:58:19.539Z,102221.50
2019-05-15T17:00:49.677Z,102229.91
2019-05-15T17:03:24.136Z,102228.12
2019-05-15T17:05:51.152Z,102225.20
2019-05-15T17:08:18.137Z,102230.78
2019-05-15T17:10:45.144Z,102229.73
2019-05-15T17:13:12.340Z,102223.84
2019-05-15T17:15:39.331Z,102233.52
2019-05-15T17:18:08.868Z,102230.58
2019-05-15T17:20:42.727Z,102226.58
2019-05-15T17:23:09.788Z,102229.42
2019-05-15T17:25:38.186Z,102228.55
2019-05-15T17:28:19.892Z,102233.48
2019-05-15T17:30:48.813Z,102228.09
2019-05-15T17:33:35.018Z,102227.73
2019-05-15T17:36:02.040Z,102219.20
2019-05-15T17:38:29.047Z,102221.77
2019-05-15T17:40:57.847Z,102223.88
2019-05-15T17:43:24.975Z,102225.51
2019-05-15T17:45:51.967Z,102228.38
2019-05-15T17:48:19.697Z,102223.30
2019-05-15T17:50:52.157Z,102222.28
2019-05-15T17:53:17.982Z,102222.08
2019-05-15T17:55:44.574Z,102218.67
2019-05-15T17:58:13.093Z,102214.81
2019-05-15T18:00:40.272Z,102223.39
2019-05-15T18:03:25.559Z,102230.03
2019-05-15T18:05:52.524Z,102229.11
2019-05-15T18:08:19.569Z,102223.02
2019-05-15T18:10:47.849Z,102230.66
2019-05-15T18:13:15.230Z,102228.88
2019-05-15T18:15:42.194Z,102228.77
2019-05-15T18:18:09.790Z,102234.22
2019-05-15T18:20:38.377Z,102234.41
2019-05-15T18:23:08.201Z,102234.20
2019-05-15T18:25:35.012Z,102231.64
2019-05-15T18:28:01.989Z,102230.49
2019-05-15T18:30:29.042Z,102234.22
2019-05-15T18:32:58.515Z,102238.44
2019-05-15T18:35:24.987Z,102236.72
2019-05-15T18:37:52.038Z,102236.41
2019-05-15T18:40:19.098Z,102234.94
2019-05-15T18:42:49.353Z,102228.39
2019-05-15T18:45:15.621Z,102232.52
2019-05-15T18:47:43.709Z,102236.02
2019-05-15T18:50:12.894Z,102226.84
2019-05-15T18:56:11.454Z,102230.98
2019-05-15T18:58:38.449Z,102231.80
2019-05-15T19:01:05.544Z,102231.64
2019-05-15T19:03:32.593Z,102239.70
2019-05-15T19:05:59.567Z,102227.01
2019-05-15T19:08:28.441Z,102235.00
2019-05-15T19:10:55.587Z,102230.66
2019-05-15T19:13:28.291Z,102227.61
2019-05-15T19:15:57.836Z,102225.95
2019-05-15T19:18:24.802Z,102224.16
2019-05-15T19:20:51.794Z,102219.44
2019-05-15T19:23:18.790Z,102214.13
2019-05-15T19:25:48.657Z,102215.89
2019-05-15T19:28:15.637Z,102217.90
2019-05-15T19:30:42.911Z,102221.51
2019-05-15T19:33:10.790Z,102218.45
2019-05-15T19:35:39.269Z,102225.34
2019-05-15T19:38:06.258Z,102224.08
2019-05-15T19:40:33.221Z,102221.97
2019-05-15T19:43:03.896Z,102220.13
2019-05-15T19:45:29.180Z,102227.08
2019-05-15T19:47:58.416Z,102237.44
2019-05-15T19:50:25.142Z,102240.07
2019-05-15T19:52:52.135Z,102244.89
2019-05-15T19:55:25.344Z,102244.17
2019-05-15T19:58:03.911Z,102249.89
2019-05-15T20:00:51.628Z,102249.91
2019-05-15T20:03:18.853Z,102251.66
2019-05-15T20:05:45.839Z,102253.86
2019-05-15T20:08:12.867Z,102258.01
2019-05-15T20:10:42.038Z,102245.81
2019-05-15T20:13:29.050Z,102252.67
2019-05-15T20:16:14.712Z,102248.45
2019-05-15T20:18:41.758Z,102248.28
2019-05-15T20:21:09.003Z,102246.67
2019-05-15T20:23:38.099Z,102242.98
2019-05-15T20:26:04.943Z,102241.64
2019-05-15T20:28:32.494Z,102245.06
2019-05-15T20:30:59.652Z,102236.23
2019-05-15T20:33:28.570Z,102239.79
2019-05-15T20:35:55.671Z,102241.13
2019-05-15T20:38:22.784Z,102234.92
2019-05-15T20:40:49.780Z,102232.80
2019-05-15T20:43:18.601Z,102237.75
2019-05-15T20:45:45.758Z,102237.77
2019-05-15T20:48:18.456Z,102236.92
2019-05-15T20:50:48.086Z,102237.76
2019-05-15T20:53:14.474Z,102239.81
2019-05-15T20:55:41.966Z,102231.05
2019-05-15T20:58:08.919Z,102229.91
2019-05-15T21:00:40.793Z,102227.36
2019-05-15T21:03:05.574Z,102223.52
2019-05-15T21:05:32.621Z,102231.95
2019-05-15T21:07:59.702Z,102229.49
2019-05-15T21:10:26.793Z,102229.48
2019-05-15T21:12:53.876Z,102230.05
2019-05-15T21:15:27.249Z,102227.76
2019-05-15T21:17:59.581Z,102230.18
2019-05-15T21:20:23.287Z,102231.07
2019-05-15T21:22:50.400Z,102223.36
2019-05-15T21:25:19.673Z,102222.28
2019-05-15T21:27:48.588Z,102212.53
2019-05-15T21:30:21.798Z,102211.46
2019-05-15T21:32:49.575Z,102212.19
2019-05-15T21:35:18.017Z,102202.77
2019-05-15T21:37:45.872Z,102207.42
2019-05-15T21:40:13.305Z,102204.64
2019-05-15T21:42:41.769Z,102199.22
2019-05-15T21:45:18.594Z,102201.00
2019-05-15T21:47:49.415Z,102199.14
2019-05-15T21:50:19.342Z,102197.40
2019-05-15T21:52:49.100Z,102197.86
2019-05-15T21:55:22.037Z,102200.22
2019-05-15T21:57:49.451Z,102198.33
2019-05-15T22:00:29.051Z,102189.80
2019-05-15T22:02:58.458Z,102186.69
2019-05-15T22:05:25.903Z,102190.84
2019-05-15T22:07:54.622Z,102184.53
2019-05-15T22:10:21.879Z,102183.86
2019-05-15T22:12:49.174Z,102183.91
2019-05-15T22:15:19.039Z,102184.86
2019-05-15T22:17:49.213Z,102182.20
2019-05-15T22:20:16.334Z,102189.37
2019-05-15T22:22:43.830Z,102183.24
2019-05-15T22:25:11.603Z,102183.06
2019-05-15T22:27:38.983Z,102176.02
2019-05-15T22:30:08.290Z,102180.44
2019-05-15T22:32:38.691Z,102172.91
2019-05-15T22:35:12.437Z,102170.70
2019-05-15T22:37:33.861Z,102172.23
2019-05-15T22:40:01.059Z,102172.55
2019-05-15T22:42:33.310Z,102175.16
2019-05-15T22:45:00.318Z,102181.30
2019-05-15T22:47:28.507Z,102167.81
2019-05-15T22:49:55.663Z,102167.00
2019-05-15T22:52:43.514Z,102170.70
2019-05-15T22:55:10.691Z,102159.46
2019-05-15T22:57:38.831Z,102157.28
2019-05-15T23:00:08.665Z,102152.55
2019-05-15T23:02:37.608Z,102151.06
2019-05-15T23:05:41.809Z,102155.39
2019-05-15T23:08:08.771Z,102157.60
2019-05-15T23:10:37.940Z,102158.33
2019-05-15T23:13:05.035Z,102155.76
2019-05-15T23:15:32.206Z,102151.03
2019-05-15T23:17:59.167Z,102146.06
2019-05-15T23:20:28.281Z,102149.63
2019-05-15T23:23:32.565Z,102148.05
2019-05-15T23:25:59.898Z,102145.56
2019-05-15T23:28:28.172Z,102139.64
2019-05-15T23:30:57.579Z,102144.25
2019-05-15T23:33:24.284Z,102135.59
2019-05-15T23:35:51.242Z,102143.40
2019-05-15T23:38:18.237Z,102134.40
2019-05-15T23:41:22.000Z,102130.20
2019-05-15T23:43:49.009Z,102135.81
2019-05-15T23:46:18.215Z,102136.31
2019-05-15T23:48:44.892Z,102127.29
2019-05-15T23:51:31.508Z,102129.84
2019-05-15T23:53:58.784Z,102125.83
2019-05-15T23:56:25.862Z,102130.23
2019-05-15T23:58:52.945Z,102128.90
